Terminal Aerodrome Forecast
Issued by NWS

Home | Current Version | Previous Version | Graphics & Text | Print | Product List | Glossary On
Versions: 1 2 3 4 5 6 7 8 9 10 11 12 13 14 15 16 17 18 19 20 21 22 23 24 25
971
FTUS43 KMPX 192202 AAA
TAFAXN
TAF AMD
KAXN 192202Z 1922/2018 15010KT P6SM BKN050
     FM200000 17009KT 4SM BR OVC008
     FM200400 15009KT 1/4SM FG VV003
     FM201200 12007KT P6SM OVC005=

USA.gov is the U.S. government's official web portal to all federal, state and local government web resources and services.